sensor_id;sensor_type;location;lat;lon;timestamp;P1;durP1;ratioP1;P2;durP2;ratioP2
82930;SDS011;72705;53.346;10.248;2023-12-20T00:02:33;15.77;;;4.65;;
82930;SDS011;72705;53.346;10.248;2023-12-20T00:05:12;17.67;;;3.83;;
82930;SDS011;72705;53.346;10.248;2023-12-20T00:07:38;14.60;;;3.85;;
82930;SDS011;72705;53.346;10.248;2023-12-20T00:10:04;13.70;;;3.78;;
82930;SDS011;72705;53.346;10.248;2023-12-20T00:12:29;12.85;;;5.47;;
82930;SDS011;72705;53.346;10.248;2023-12-20T00:14:54;13.87;;;4.00;;
82930;SDS011;72705;53.346;10.248;2023-12-20T00:17:20;12.73;;;3.92;;
82930;SDS011;72705;53.346;10.248;2023-12-20T00:19:45;19.67;;;4.23;;
82930;SDS011;72705;53.346;10.248;2023-12-20T00:22:10;13.30;;;3.97;;
82930;SDS011;72705;53.346;10.248;2023-12-20T00:24:36;30.65;;;5.13;;
82930;SDS011;72705;53.346;10.248;2023-12-20T00:27:01;12.43;;;3.83;;
82930;SDS011;72705;53.346;10.248;2023-12-20T00:29:27;12.75;;;3.53;;
82930;SDS011;72705;53.346;10.248;2023-12-20T00:31:52;20.90;;;4.10;;
82930;SDS011;72705;53.346;10.248;2023-12-20T00:34:18;16.20;;;3.35;;
82930;SDS011;72705;53.346;10.248;2023-12-20T00:36:43;16.80;;;3.63;;
82930;SDS011;72705;53.346;10.248;2023-12-20T00:39:08;15.50;;;3.90;;
82930;SDS011;72705;53.346;10.248;2023-12-20T00:41:36;15.57;;;4.40;;
82930;SDS011;72705;53.346;10.248;2023-12-20T00:44:03;16.52;;;4.50;;
82930;SDS011;72705;53.346;10.248;2023-12-20T00:46:28;19.85;;;3.53;;
82930;SDS011;72705;53.346;10.248;2023-12-20T00:48:54;10.97;;;4.30;;
82930;SDS011;72705;53.346;10.248;2023-12-20T00:51:19;20.73;;;4.37;;
82930;SDS011;72705;53.346;10.248;2023-12-20T00:53:45;11.27;;;3.22;;
82930;SDS011;72705;53.346;10.248;2023-12-20T00:56:14;16.90;;;5.00;;
82930;SDS011;72705;53.346;10.248;2023-12-20T00:58:39;21.85;;;4.10;;
82930;SDS011;72705;53.346;10.248;2023-12-20T01:01:05;14.25;;;4.57;;
82930;SDS011;72705;53.346;10.248;2023-12-20T01:03:30;11.67;;;3.60;;
82930;SDS011;72705;53.346;10.248;2023-12-20T01:06:00;17.33;;;4.03;;
82930;SDS011;72705;53.346;10.248;2023-12-20T01:08:26;14.43;;;3.50;;
82930;SDS011;72705;53.346;10.248;2023-12-20T01:10:51;17.80;;;3.77;;
82930;SDS011;72705;53.346;10.248;2023-12-20T01:13:18;10.85;;;2.92;;
82930;SDS011;72705;53.346;10.248;2023-12-20T01:15:43;10.50;;;3.72;;
82930;SDS011;72705;53.346;10.248;2023-12-20T01:18:11;14.77;;;3.08;;
82930;SDS011;72705;53.346;10.248;2023-12-20T01:20:36;16.83;;;3.58;;
82930;SDS011;72705;53.346;10.248;2023-12-20T01:23:01;13.55;;;2.90;;
82930;SDS011;72705;53.346;10.248;2023-12-20T01:25:27;16.02;;;4.13;;
82930;SDS011;72705;53.346;10.248;2023-12-20T01:30:29;16.85;;;3.10;;
82930;SDS011;72705;53.346;10.248;2023-12-20T01:32:54;18.92;;;4.05;;
82930;SDS011;72705;53.346;10.248;2023-12-20T01:35:20;20.38;;;3.83;;
82930;SDS011;72705;53.346;10.248;2023-12-20T01:37:45;23.77;;;3.83;;
82930;SDS011;72705;53.346;10.248;2023-12-20T01:40:10;13.32;;;3.10;;
82930;SDS011;72705;53.346;10.248;2023-12-20T01:42:36;15.88;;;3.08;;
82930;SDS011;72705;53.346;10.248;2023-12-20T01:45:02;17.30;;;4.75;;
82930;SDS011;72705;53.346;10.248;2023-12-20T01:47:28;17.00;;;3.38;;
82930;SDS011;72705;53.346;10.248;2023-12-20T01:49:54;21.02;;;3.53;;
82930;SDS011;72705;53.346;10.248;2023-12-20T01:52:21;12.00;;;3.08;;
82930;SDS011;72705;53.346;10.248;2023-12-20T01:54:47;15.57;;;3.15;;
82930;SDS011;72705;53.346;10.248;2023-12-20T01:57:13;10.25;;;2.83;;
82930;SDS011;72705;53.346;10.248;2023-12-20T01:59:39;15.48;;;3.13;;
82930;SDS011;72705;53.346;10.248;2023-12-20T02:02:05;17.55;;;4.03;;
82930;SDS011;72705;53.346;10.248;2023-12-20T02:04:32;17.30;;;3.22;;
82930;SDS011;72705;53.346;10.248;2023-12-20T02:06:58;16.40;;;3.63;;
82930;SDS011;72705;53.346;10.248;2023-12-20T02:09:24;16.60;;;3.70;;
82930;SDS011;72705;53.346;10.248;2023-12-20T02:11:49;11.68;;;2.80;;
82930;SDS011;72705;53.346;10.248;2023-12-20T02:14:23;10.27;;;3.22;;
82930;SDS011;72705;53.346;10.248;2023-12-20T02:16:48;16.85;;;3.00;;
82930;SDS011;72705;53.346;10.248;2023-12-20T02:19:14;14.15;;;3.20;;
82930;SDS011;72705;53.346;10.248;2023-12-20T02:21:40;16.75;;;3.42;;
82930;SDS011;72705;53.346;10.248;2023-12-20T02:24:12;18.35;;;4.07;;
82930;SDS011;72705;53.346;10.248;2023-12-20T02:26:40;15.20;;;4.93;;
82930;SDS011;72705;53.346;10.248;2023-12-20T02:31:32;14.43;;;3.37;;
82930;SDS011;72705;53.346;10.248;2023-12-20T02:33:57;16.30;;;5.32;;
82930;SDS011;72705;53.346;10.248;2023-12-20T02:36:22;19.92;;;5.68;;
82930;SDS011;72705;53.346;10.248;2023-12-20T02:38:48;27.87;;;5.73;;
82930;SDS011;72705;53.346;10.248;2023-12-20T02:41:15;16.25;;;5.07;;
82930;SDS011;72705;53.346;10.248;2023-12-20T02:43:42;15.32;;;5.45;;
82930;SDS011;72705;53.346;10.248;2023-12-20T02:46:09;25.35;;;7.07;;
82930;SDS011;72705;53.346;10.248;2023-12-20T02:48:34;22.92;;;7.05;;
82930;SDS011;72705;53.346;10.248;2023-12-20T02:51:00;35.20;;;7.85;;
82930;SDS011;72705;53.346;10.248;2023-12-20T02:53:26;20.13;;;7.95;;
82930;SDS011;72705;53.346;10.248;2023-12-20T02:55:52;26.00;;;9.18;;
82930;SDS011;72705;53.346;10.248;2023-12-20T02:58:17;24.35;;;7.93;;
82930;SDS011;72705;53.346;10.248;2023-12-20T03:00:43;20.45;;;7.00;;
82930;SDS011;72705;53.346;10.248;2023-12-20T03:03:08;16.98;;;7.78;;
82930;SDS011;72705;53.346;10.248;2023-12-20T03:05:33;23.57;;;7.80;;
82930;SDS011;72705;53.346;10.248;2023-12-20T03:07:59;18.90;;;6.80;;
82930;SDS011;72705;53.346;10.248;2023-12-20T03:10:24;28.37;;;9.23;;
82930;SDS011;72705;53.346;10.248;2023-12-20T03:12:49;31.75;;;8.50;;
82930;SDS011;72705;53.346;10.248;2023-12-20T03:15:17;24.17;;;8.20;;
82930;SDS011;72705;53.346;10.248;2023-12-20T03:17:42;21.10;;;9.20;;
82930;SDS011;72705;53.346;10.248;2023-12-20T03:20:08;35.80;;;8.45;;
82930;SDS011;72705;53.346;10.248;2023-12-20T03:22:33;20.88;;;8.30;;
82930;SDS011;72705;53.346;10.248;2023-12-20T03:24:59;22.17;;;8.52;;
82930;SDS011;72705;53.346;10.248;2023-12-20T03:27:24;26.33;;;8.40;;
82930;SDS011;72705;53.346;10.248;2023-12-20T03:29:50;23.23;;;7.50;;
82930;SDS011;72705;53.346;10.248;2023-12-20T03:32:15;17.55;;;7.28;;
82930;SDS011;72705;53.346;10.248;2023-12-20T03:34:40;24.00;;;9.07;;
82930;SDS011;72705;53.346;10.248;2023-12-20T03:37:06;20.63;;;7.50;;
82930;SDS011;72705;53.346;10.248;2023-12-20T03:39:31;29.67;;;6.87;;
82930;SDS011;72705;53.346;10.248;2023-12-20T03:41:56;22.92;;;8.55;;
82930;SDS011;72705;53.346;10.248;2023-12-20T03:44:22;19.48;;;7.05;;
82930;SDS011;72705;53.346;10.248;2023-12-20T03:46:50;21.63;;;5.90;;
82930;SDS011;72705;53.346;10.248;2023-12-20T03:49:15;16.02;;;6.30;;
82930;SDS011;72705;53.346;10.248;2023-12-20T03:51:40;22.47;;;6.60;;
82930;SDS011;72705;53.346;10.248;2023-12-20T03:54:07;21.17;;;5.95;;
82930;SDS011;72705;53.346;10.248;2023-12-20T03:56:32;16.67;;;6.03;;
82930;SDS011;72705;53.346;10.248;2023-12-20T03:58:58;14.53;;;6.00;;
82930;SDS011;72705;53.346;10.248;2023-12-20T04:03:52;10.40;;;4.60;;
82930;SDS011;72705;53.346;10.248;2023-12-20T04:06:18;21.88;;;5.82;;
82930;SDS011;72705;53.346;10.248;2023-12-20T04:08:44;13.90;;;6.93;;
82930;SDS011;72705;53.346;10.248;2023-12-20T04:11:09;16.93;;;5.13;;
82930;SDS011;72705;53.346;10.248;2023-12-20T04:13:34;9.70;;;4.77;;
82930;SDS011;72705;53.346;10.248;2023-12-20T04:15:59;16.37;;;4.63;;
82930;SDS011;72705;53.346;10.248;2023-12-20T04:18:25;16.40;;;5.70;;
82930;SDS011;72705;53.346;10.248;2023-12-20T04:20:50;14.55;;;4.78;;
82930;SDS011;72705;53.346;10.248;2023-12-20T04:23:16;20.27;;;5.82;;
82930;SDS011;72705;53.346;10.248;2023-12-20T04:25:42;17.70;;;5.38;;
82930;SDS011;72705;53.346;10.248;2023-12-20T04:28:07;20.15;;;5.22;;
82930;SDS011;72705;53.346;10.248;2023-12-20T04:30:36;19.88;;;6.18;;
82930;SDS011;72705;53.346;10.248;2023-12-20T04:33:01;20.83;;;5.53;;
82930;SDS011;72705;53.346;10.248;2023-12-20T04:35:27;21.63;;;7.13;;
82930;SDS011;72705;53.346;10.248;2023-12-20T04:37:52;17.30;;;5.07;;
82930;SDS011;72705;53.346;10.248;2023-12-20T04:40:20;16.80;;;5.22;;
82930;SDS011;72705;53.346;10.248;2023-12-20T04:42:47;18.65;;;5.07;;
82930;SDS011;72705;53.346;10.248;2023-12-20T04:48:01;19.25;;;5.72;;
82930;SDS011;72705;53.346;10.248;2023-12-20T04:50:27;13.70;;;6.10;;
82930;SDS011;72705;53.346;10.248;2023-12-20T04:52:53;14.35;;;5.03;;
82930;SDS011;72705;53.346;10.248;2023-12-20T04:55:31;22.25;;;5.85;;
82930;SDS011;72705;53.346;10.248;2023-12-20T04:57:56;17.65;;;6.47;;
82930;SDS011;72705;53.346;10.248;2023-12-20T05:00:21;20.65;;;7.80;;
82930;SDS011;72705;53.346;10.248;2023-12-20T05:02:47;21.80;;;5.85;;
82930;SDS011;72705;53.346;10.248;2023-12-20T05:05:12;14.95;;;5.88;;
82930;SDS011;72705;53.346;10.248;2023-12-20T05:07:40;19.15;;;5.75;;
82930;SDS011;72705;53.346;10.248;2023-12-20T05:10:05;23.98;;;5.97;;
82930;SDS011;72705;53.346;10.248;2023-12-20T05:12:40;32.20;;;7.38;;
82930;SDS011;72705;53.346;10.248;2023-12-20T05:15:06;22.73;;;6.55;;
82930;SDS011;72705;53.346;10.248;2023-12-20T05:17:31;24.48;;;7.30;;
82930;SDS011;72705;53.346;10.248;2023-12-20T05:19:59;18.20;;;5.93;;
82930;SDS011;72705;53.346;10.248;2023-12-20T05:22:24;18.02;;;6.50;;
82930;SDS011;72705;53.346;10.248;2023-12-20T05:24:52;20.98;;;7.20;;
82930;SDS011;72705;53.346;10.248;2023-12-20T05:27:19;17.55;;;6.25;;
82930;SDS011;72705;53.346;10.248;2023-12-20T05:29:45;21.58;;;6.25;;
82930;SDS011;72705;53.346;10.248;2023-12-20T05:32:10;23.05;;;6.88;;
82930;SDS011;72705;53.346;10.248;2023-12-20T05:34:35;16.48;;;5.68;;
82930;SDS011;72705;53.346;10.248;2023-12-20T05:37:01;20.05;;;6.47;;
82930;SDS011;72705;53.346;10.248;2023-12-20T05:39:27;18.42;;;5.88;;
82930;SDS011;72705;53.346;10.248;2023-12-20T05:41:52;16.40;;;6.43;;
82930;SDS011;72705;53.346;10.248;2023-12-20T05:44:17;22.80;;;6.80;;
82930;SDS011;72705;53.346;10.248;2023-12-20T05:46:44;25.13;;;6.50;;
82930;SDS011;72705;53.346;10.248;2023-12-20T05:49:09;17.13;;;5.10;;
82930;SDS011;72705;53.346;10.248;2023-12-20T05:51:35;25.40;;;7.70;;
82930;SDS011;72705;53.346;10.248;2023-12-20T05:54:07;16.93;;;5.13;;
82930;SDS011;72705;53.346;10.248;2023-12-20T05:56:34;13.50;;;5.22;;
82930;SDS011;72705;53.346;10.248;2023-12-20T05:58:59;21.47;;;5.93;;
82930;SDS011;72705;53.346;10.248;2023-12-20T06:01:29;18.87;;;5.80;;
82930;SDS011;72705;53.346;10.248;2023-12-20T06:03:54;19.27;;;6.05;;
82930;SDS011;72705;53.346;10.248;2023-12-20T06:06:23;19.07;;;5.43;;
82930;SDS011;72705;53.346;10.248;2023-12-20T06:08:51;19.42;;;6.05;;
82930;SDS011;72705;53.346;10.248;2023-12-20T06:11:19;20.77;;;6.30;;
82930;SDS011;72705;53.346;10.248;2023-12-20T06:13:57;27.30;;;6.40;;
82930;SDS011;72705;53.346;10.248;2023-12-20T06:16:23;13.80;;;6.32;;
82930;SDS011;72705;53.346;10.248;2023-12-20T06:18:48;17.67;;;6.97;;
82930;SDS011;72705;53.346;10.248;2023-12-20T06:21:18;17.77;;;6.75;;
82930;SDS011;72705;53.346;10.248;2023-12-20T06:23:43;18.05;;;6.55;;
82930;SDS011;72705;53.346;10.248;2023-12-20T06:26:09;21.52;;;7.43;;
82930;SDS011;72705;53.346;10.248;2023-12-20T06:28:34;19.73;;;7.80;;
82930;SDS011;72705;53.346;10.248;2023-12-20T06:30:59;28.15;;;9.05;;
82930;SDS011;72705;53.346;10.248;2023-12-20T06:33:27;18.92;;;7.53;;
82930;SDS011;72705;53.346;10.248;2023-12-20T06:38:20;19.13;;;7.37;;
82930;SDS011;72705;53.346;10.248;2023-12-20T06:40:45;22.20;;;7.15;;
82930;SDS011;72705;53.346;10.248;2023-12-20T06:43:12;22.87;;;6.57;;
82930;SDS011;72705;53.346;10.248;2023-12-20T06:45:39;26.58;;;7.30;;
82930;SDS011;72705;53.346;10.248;2023-12-20T06:48:05;24.52;;;7.72;;
82930;SDS011;72705;53.346;10.248;2023-12-20T06:50:32;21.73;;;8.23;;
82930;SDS011;72705;53.346;10.248;2023-12-20T06:52:58;25.25;;;8.27;;
82930;SDS011;72705;53.346;10.248;2023-12-20T06:55:23;23.92;;;7.20;;
82930;SDS011;72705;53.346;10.248;2023-12-20T06:57:49;22.65;;;7.60;;
82930;SDS011;72705;53.346;10.248;2023-12-20T07:00:14;24.17;;;7.15;;
82930;SDS011;72705;53.346;10.248;2023-12-20T07:02:40;24.80;;;6.88;;
82930;SDS011;72705;53.346;10.248;2023-12-20T07:05:05;23.88;;;7.35;;
82930;SDS011;72705;53.346;10.248;2023-12-20T07:07:31;15.13;;;6.70;;
82930;SDS011;72705;53.346;10.248;2023-12-20T07:09:57;21.75;;;6.55;;
82930;SDS011;72705;53.346;10.248;2023-12-20T07:12:22;23.17;;;7.60;;
82930;SDS011;72705;53.346;10.248;2023-12-20T07:14:48;21.20;;;6.78;;
82930;SDS011;72705;53.346;10.248;2023-12-20T07:17:13;23.65;;;6.45;;
82930;SDS011;72705;53.346;10.248;2023-12-20T07:19:40;20.52;;;7.30;;
82930;SDS011;72705;53.346;10.248;2023-12-20T07:22:06;28.20;;;7.63;;
82930;SDS011;72705;53.346;10.248;2023-12-20T07:24:32;18.05;;;6.90;;
82930;SDS011;72705;53.346;10.248;2023-12-20T07:26:59;21.42;;;6.88;;
82930;SDS011;72705;53.346;10.248;2023-12-20T07:29:25;19.15;;;6.05;;
82930;SDS011;72705;53.346;10.248;2023-12-20T07:31:52;25.98;;;6.60;;
82930;SDS011;72705;53.346;10.248;2023-12-20T07:34:18;17.05;;;6.85;;
82930;SDS011;72705;53.346;10.248;2023-12-20T07:36:44;17.05;;;5.82;;
82930;SDS011;72705;53.346;10.248;2023-12-20T07:39:10;15.95;;;6.88;;
82930;SDS011;72705;53.346;10.248;2023-12-20T07:41:35;18.13;;;5.25;;
82930;SDS011;72705;53.346;10.248;2023-12-20T07:44:01;19.50;;;6.23;;
82930;SDS011;72705;53.346;10.248;2023-12-20T07:46:28;16.80;;;5.17;;
82930;SDS011;72705;53.346;10.248;2023-12-20T07:48:54;24.50;;;6.72;;
82930;SDS011;72705;53.346;10.248;2023-12-20T07:51:19;22.03;;;6.30;;
82930;SDS011;72705;53.346;10.248;2023-12-20T07:53:46;21.38;;;6.68;;
82930;SDS011;72705;53.346;10.248;2023-12-20T07:56:16;14.18;;;5.55;;
82930;SDS011;72705;53.346;10.248;2023-12-20T07:58:42;27.38;;;7.20;;
82930;SDS011;72705;53.346;10.248;2023-12-20T08:01:08;19.55;;;5.55;;
82930;SDS011;72705;53.346;10.248;2023-12-20T08:03:34;31.23;;;6.18;;
82930;SDS011;72705;53.346;10.248;2023-12-20T08:05:59;19.30;;;5.30;;
82930;SDS011;72705;53.346;10.248;2023-12-20T08:08:25;24.35;;;6.55;;
82930;SDS011;72705;53.346;10.248;2023-12-20T08:10:51;24.27;;;6.68;;
82930;SDS011;72705;53.346;10.248;2023-12-20T08:13:16;17.33;;;5.47;;
82930;SDS011;72705;53.346;10.248;2023-12-20T08:15:42;21.85;;;6.20;;
82930;SDS011;72705;53.346;10.248;2023-12-20T08:18:07;22.17;;;5.80;;
82930;SDS011;72705;53.346;10.248;2023-12-20T08:20:32;25.30;;;5.23;;
82930;SDS011;72705;53.346;10.248;2023-12-20T08:22:58;19.63;;;6.20;;
82930;SDS011;72705;53.346;10.248;2023-12-20T08:25:23;28.35;;;7.32;;
82930;SDS011;72705;53.346;10.248;2023-12-20T08:27:49;29.67;;;5.70;;
82930;SDS011;72705;53.346;10.248;2023-12-20T08:30:15;21.35;;;6.47;;
82930;SDS011;72705;53.346;10.248;2023-12-20T08:32:45;21.20;;;5.68;;
82930;SDS011;72705;53.346;10.248;2023-12-20T08:35:11;21.10;;;5.82;;
82930;SDS011;72705;53.346;10.248;2023-12-20T08:37:36;31.15;;;6.45;;
82930;SDS011;72705;53.346;10.248;2023-12-20T08:40:01;23.58;;;6.25;;
82930;SDS011;72705;53.346;10.248;2023-12-20T08:42:27;27.48;;;5.28;;
82930;SDS011;72705;53.346;10.248;2023-12-20T08:47:22;20.05;;;5.47;;
82930;SDS011;72705;53.346;10.248;2023-12-20T08:49:47;24.05;;;5.63;;
82930;SDS011;72705;53.346;10.248;2023-12-20T08:52:12;25.23;;;5.90;;
82930;SDS011;72705;53.346;10.248;2023-12-20T08:54:38;24.57;;;6.73;;
82930;SDS011;72705;53.346;10.248;2023-12-20T08:57:03;17.67;;;5.23;;
82930;SDS011;72705;53.346;10.248;2023-12-20T08:59:31;21.63;;;4.68;;
82930;SDS011;72705;53.346;10.248;2023-12-20T09:01:57;20.17;;;5.93;;
82930;SDS011;72705;53.346;10.248;2023-12-20T09:04:22;16.80;;;5.60;;
82930;SDS011;72705;53.346;10.248;2023-12-20T09:06:48;15.75;;;5.47;;
82930;SDS011;72705;53.346;10.248;2023-12-20T09:09:15;19.92;;;5.60;;
82930;SDS011;72705;53.346;10.248;2023-12-20T09:11:40;18.85;;;5.05;;
82930;SDS011;72705;53.346;10.248;2023-12-20T09:14:07;15.30;;;5.95;;
82930;SDS011;72705;53.346;10.248;2023-12-20T09:16:32;17.45;;;5.28;;
82930;SDS011;72705;53.346;10.248;2023-12-20T09:18:58;21.20;;;5.70;;
82930;SDS011;72705;53.346;10.248;2023-12-20T09:21:23;14.60;;;3.87;;
82930;SDS011;72705;53.346;10.248;2023-12-20T09:23:49;14.20;;;4.63;;
82930;SDS011;72705;53.346;10.248;2023-12-20T09:26:14;14.82;;;4.95;;
82930;SDS011;72705;53.346;10.248;2023-12-20T09:28:40;13.65;;;4.43;;
82930;SDS011;72705;53.346;10.248;2023-12-20T09:31:05;12.77;;;4.53;;
82930;SDS011;72705;53.346;10.248;2023-12-20T09:33:31;16.45;;;5.07;;
82930;SDS011;72705;53.346;10.248;2023-12-20T09:35:57;15.57;;;5.03;;
82930;SDS011;72705;53.346;10.248;2023-12-20T09:38:23;15.55;;;5.30;;
82930;SDS011;72705;53.346;10.248;2023-12-20T09:40:48;20.92;;;6.43;;
82930;SDS011;72705;53.346;10.248;2023-12-20T09:43:14;17.83;;;5.13;;
82930;SDS011;72705;53.346;10.248;2023-12-20T09:45:45;19.70;;;7.03;;
82930;SDS011;72705;53.346;10.248;2023-12-20T09:50:37;11.73;;;3.80;;
82930;SDS011;72705;53.346;10.248;2023-12-20T09:53:03;7.32;;;2.80;;
82930;SDS011;72705;53.346;10.248;2023-12-20T09:55:30;10.38;;;2.75;;
82930;SDS011;72705;53.346;10.248;2023-12-20T09:57:57;7.75;;;3.70;;
82930;SDS011;72705;53.346;10.248;2023-12-20T10:00:24;8.82;;;2.58;;
82930;SDS011;72705;53.346;10.248;2023-12-20T10:02:56;12.85;;;3.78;;
82930;SDS011;72705;53.346;10.248;2023-12-20T10:05:27;14.70;;;3.17;;
82930;SDS011;72705;53.346;10.248;2023-12-20T10:07:59;8.50;;;3.22;;
82930;SDS011;72705;53.346;10.248;2023-12-20T10:10:26;3.55;;;2.15;;
82930;SDS011;72705;53.346;10.248;2023-12-20T10:13:02;7.15;;;2.95;;
82930;SDS011;72705;53.346;10.248;2023-12-20T10:15:32;11.10;;;2.88;;
82930;SDS011;72705;53.346;10.248;2023-12-20T10:17:58;6.43;;;2.83;;
82930;SDS011;72705;53.346;10.248;2023-12-20T10:20:24;8.00;;;2.33;;
82930;SDS011;72705;53.346;10.248;2023-12-20T10:22:49;5.88;;;2.05;;
82930;SDS011;72705;53.346;10.248;2023-12-20T10:25:15;2.28;;;1.65;;
82930;SDS011;72705;53.346;10.248;2023-12-20T10:27:40;4.00;;;1.73;;
82930;SDS011;72705;53.346;10.248;2023-12-20T10:30:06;7.70;;;2.00;;
82930;SDS011;72705;53.346;10.248;2023-12-20T10:32:31;5.07;;;1.60;;
82930;SDS011;72705;53.346;10.248;2023-12-20T10:34:57;3.80;;;2.38;;
82930;SDS011;72705;53.346;10.248;2023-12-20T10:37:22;2.38;;;1.80;;
82930;SDS011;72705;53.346;10.248;2023-12-20T10:39:52;4.53;;;1.73;;
82930;SDS011;72705;53.346;10.248;2023-12-20T10:42:21;3.83;;;1.20;;
82930;SDS011;72705;53.346;10.248;2023-12-20T10:44:47;3.22;;;1.70;;
82930;SDS011;72705;53.346;10.248;2023-12-20T10:47:14;3.08;;;1.55;;
82930;SDS011;72705;53.346;10.248;2023-12-20T10:49:40;2.95;;;1.55;;
82930;SDS011;72705;53.346;10.248;2023-12-20T10:52:07;4.82;;;2.05;;
82930;SDS011;72705;53.346;10.248;2023-12-20T10:54:34;7.05;;;2.28;;
82930;SDS011;72705;53.346;10.248;2023-12-20T10:57:01;4.72;;;1.45;;
82930;SDS011;72705;53.346;10.248;2023-12-20T10:59:31;3.95;;;1.60;;
82930;SDS011;72705;53.346;10.248;2023-12-20T11:01:58;3.92;;;1.80;;
82930;SDS011;72705;53.346;10.248;2023-12-20T11:04:25;2.97;;;1.77;;
82930;SDS011;72705;53.346;10.248;2023-12-20T11:07:03;8.23;;;2.15;;
82930;SDS011;72705;53.346;10.248;2023-12-20T11:09:43;2.92;;;1.23;;
82930;SDS011;72705;53.346;10.248;2023-12-20T11:12:20;2.00;;;1.27;;
82930;SDS011;72705;53.346;10.248;2023-12-20T11:14:57;2.97;;;1.90;;
82930;SDS011;72705;53.346;10.248;2023-12-20T11:17:28;2.80;;;1.42;;
82930;SDS011;72705;53.346;10.248;2023-12-20T11:22:26;5.50;;;1.42;;
82930;SDS011;72705;53.346;10.248;2023-12-20T11:24:53;5.03;;;1.70;;
82930;SDS011;72705;53.346;10.248;2023-12-20T11:27:19;9.40;;;2.33;;
82930;SDS011;72705;53.346;10.248;2023-12-20T11:29:51;7.18;;;2.00;;
82930;SDS011;72705;53.346;10.248;2023-12-20T11:34:53;4.60;;;1.85;;
82930;SDS011;72705;53.346;10.248;2023-12-20T11:37:20;5.07;;;2.22;;
82930;SDS011;72705;53.346;10.248;2023-12-20T11:39:45;6.05;;;1.70;;
82930;SDS011;72705;53.346;10.248;2023-12-20T11:42:19;11.65;;;2.90;;
82930;SDS011;72705;53.346;10.248;2023-12-20T11:44:46;7.38;;;2.08;;
82930;SDS011;72705;53.346;10.248;2023-12-20T11:47:13;16.13;;;3.00;;
82930;SDS011;72705;53.346;10.248;2023-12-20T11:52:12;8.82;;;2.65;;
82930;SDS011;72705;53.346;10.248;2023-12-20T11:54:38;15.55;;;2.70;;
82930;SDS011;72705;53.346;10.248;2023-12-20T11:57:03;6.68;;;2.20;;
82930;SDS011;72705;53.346;10.248;2023-12-20T11:59:30;15.20;;;2.35;;
82930;SDS011;72705;53.346;10.248;2023-12-20T12:01:58;6.93;;;1.85;;
82930;SDS011;72705;53.346;10.248;2023-12-20T12:04:26;8.93;;;1.90;;
82930;SDS011;72705;53.346;10.248;2023-12-20T12:06:52;11.55;;;2.70;;
82930;SDS011;72705;53.346;10.248;2023-12-20T12:09:17;15.68;;;2.42;;
82930;SDS011;72705;53.346;10.248;2023-12-20T12:11:42;9.60;;;2.47;;
82930;SDS011;72705;53.346;10.248;2023-12-20T12:14:08;9.85;;;3.05;;
82930;SDS011;72705;53.346;10.248;2023-12-20T12:16:34;10.82;;;2.38;;
82930;SDS011;72705;53.346;10.248;2023-12-20T12:19:00;7.57;;;2.17;;
82930;SDS011;72705;53.346;10.248;2023-12-20T12:21:25;11.65;;;2.55;;
82930;SDS011;72705;53.346;10.248;2023-12-20T12:23:51;9.00;;;2.45;;
82930;SDS011;72705;53.346;10.248;2023-12-20T12:26:16;10.60;;;2.95;;
82930;SDS011;72705;53.346;10.248;2023-12-20T12:28:42;12.45;;;3.25;;
82930;SDS011;72705;53.346;10.248;2023-12-20T12:31:08;6.70;;;2.28;;
82930;SDS011;72705;53.346;10.248;2023-12-20T12:33:38;7.40;;;2.05;;
82930;SDS011;72705;53.346;10.248;2023-12-20T12:36:04;12.80;;;2.92;;
82930;SDS011;72705;53.346;10.248;2023-12-20T12:38:32;13.82;;;3.10;;
82930;SDS011;72705;53.346;10.248;2023-12-20T12:40:57;6.35;;;2.13;;
82930;SDS011;72705;53.346;10.248;2023-12-20T12:43:23;9.45;;;2.83;;
82930;SDS011;72705;53.346;10.248;2023-12-20T12:45:49;16.70;;;2.72;;
82930;SDS011;72705;53.346;10.248;2023-12-20T12:48:14;9.90;;;3.00;;
82930;SDS011;72705;53.346;10.248;2023-12-20T12:50:40;10.73;;;2.58;;
82930;SDS011;72705;53.346;10.248;2023-12-20T12:53:05;9.52;;;2.42;;
82930;SDS011;72705;53.346;10.248;2023-12-20T12:55:32;7.27;;;2.60;;
82930;SDS011;72705;53.346;10.248;2023-12-20T12:57:59;8.95;;;2.15;;
82930;SDS011;72705;53.346;10.248;2023-12-20T13:00:24;8.30;;;2.20;;
82930;SDS011;72705;53.346;10.248;2023-12-20T13:02:51;5.03;;;2.92;;
82930;SDS011;72705;53.346;10.248;2023-12-20T13:05:16;11.95;;;2.25;;
82930;SDS011;72705;53.346;10.248;2023-12-20T13:07:42;8.48;;;2.60;;
82930;SDS011;72705;53.346;10.248;2023-12-20T13:10:10;10.35;;;2.53;;
82930;SDS011;72705;53.346;10.248;2023-12-20T13:12:36;6.90;;;2.08;;
82930;SDS011;72705;53.346;10.248;2023-12-20T13:15:03;7.78;;;2.00;;
82930;SDS011;72705;53.346;10.248;2023-12-20T13:17:29;9.93;;;3.35;;
82930;SDS011;72705;53.346;10.248;2023-12-20T13:19:55;14.88;;;3.17;;
82930;SDS011;72705;53.346;10.248;2023-12-20T13:22:20;11.85;;;2.25;;
82930;SDS011;72705;53.346;10.248;2023-12-20T13:24:45;13.25;;;2.50;;
82930;SDS011;72705;53.346;10.248;2023-12-20T13:27:11;10.82;;;2.42;;
82930;SDS011;72705;53.346;10.248;2023-12-20T13:29:36;6.93;;;2.47;;
82930;SDS011;72705;53.346;10.248;2023-12-20T13:32:01;17.63;;;2.63;;
82930;SDS011;72705;53.346;10.248;2023-12-20T13:34:28;10.13;;;2.58;;
82930;SDS011;72705;53.346;10.248;2023-12-20T13:36:55;12.73;;;2.72;;
82930;SDS011;72705;53.346;10.248;2023-12-20T13:39:21;16.33;;;2.78;;
82930;SDS011;72705;53.346;10.248;2023-12-20T13:41:47;11.45;;;2.63;;
82930;SDS011;72705;53.346;10.248;2023-12-20T13:44:12;9.73;;;3.17;;
82930;SDS011;72705;53.346;10.248;2023-12-20T13:46:38;12.25;;;3.60;;
82930;SDS011;72705;53.346;10.248;2023-12-20T13:49:03;13.98;;;2.92;;
82930;SDS011;72705;53.346;10.248;2023-12-20T13:51:30;14.30;;;3.28;;
82930;SDS011;72705;53.346;10.248;2023-12-20T13:53:55;14.75;;;3.20;;
82930;SDS011;72705;53.346;10.248;2023-12-20T13:56:21;11.50;;;2.90;;
82930;SDS011;72705;53.346;10.248;2023-12-20T13:58:48;23.15;;;4.43;;
82930;SDS011;72705;53.346;10.248;2023-12-20T14:01:13;15.13;;;3.30;;
82930;SDS011;72705;53.346;10.248;2023-12-20T14:03:38;16.97;;;3.57;;
82930;SDS011;72705;53.346;10.248;2023-12-20T14:06:04;16.67;;;3.85;;
82930;SDS011;72705;53.346;10.248;2023-12-20T14:08:29;10.82;;;3.65;;
82930;SDS011;72705;53.346;10.248;2023-12-20T14:10:55;25.58;;;4.45;;
82930;SDS011;72705;53.346;10.248;2023-12-20T14:13:20;18.47;;;4.93;;
82930;SDS011;72705;53.346;10.248;2023-12-20T14:15:46;12.47;;;3.17;;
82930;SDS011;72705;53.346;10.248;2023-12-20T14:18:12;18.90;;;3.35;;
82930;SDS011;72705;53.346;10.248;2023-12-20T14:20:40;16.20;;;5.13;;
82930;SDS011;72705;53.346;10.248;2023-12-20T14:23:07;21.52;;;4.07;;
82930;SDS011;72705;53.346;10.248;2023-12-20T14:25:34;17.48;;;3.70;;
82930;SDS011;72705;53.346;10.248;2023-12-20T14:28:02;19.25;;;3.92;;
82930;SDS011;72705;53.346;10.248;2023-12-20T14:30:28;18.50;;;3.75;;
82930;SDS011;72705;53.346;10.248;2023-12-20T14:32:53;21.48;;;4.30;;
82930;SDS011;72705;53.346;10.248;2023-12-20T14:35:18;25.23;;;4.43;;
82930;SDS011;72705;53.346;10.248;2023-12-20T14:37:44;18.80;;;4.63;;
82930;SDS011;72705;53.346;10.248;2023-12-20T14:40:10;14.10;;;4.28;;
82930;SDS011;72705;53.346;10.248;2023-12-20T14:42:40;22.92;;;4.82;;
82930;SDS011;72705;53.346;10.248;2023-12-20T14:45:09;15.90;;;4.63;;